createdAt,value
2022-11-23T00:04:14.422Z,99360.61
2022-11-23T00:09:16.929Z,99357.77
2022-11-23T00:14:19.494Z,99354.02
2022-11-23T00:19:21.950Z,99351.94
2022-11-23T00:24:24.411Z,99342.91
2022-11-23T00:29:27.342Z,99344.39
2022-11-23T00:34:29.842Z,99347.55
2022-11-23T00:39:32.544Z,99354.08
2022-11-23T00:44:35.318Z,99362.98
2022-11-23T00:49:37.821Z,99366.58
2022-11-23T00:54:40.353Z,99370.17
2022-11-23T00:59:45.788Z,99375.67
2022-11-23T01:04:48.247Z,99377.74
2022-11-23T01:09:50.746Z,99378.27
2022-11-23T01:14:54.130Z,99380.38
2022-11-23T01:19:59.067Z,99384.15
2022-11-23T01:25:01.519Z,99391.66
2022-11-23T01:30:04.529Z,99394.04
2022-11-23T01:35:07.253Z,99391.83
2022-11-23T01:40:10.704Z,99393.20
2022-11-23T01:45:19.130Z,99391.50
2022-11-23T01:50:21.646Z,99391.65
2022-11-23T01:55:25.392Z,99382.20
2022-11-23T02:00:28.241Z,99390.26
2022-11-23T02:05:37.317Z,99381.55
2022-11-23T02:10:39.822Z,99398.86
2022-11-23T02:15:42.558Z,99404.48
2022-11-23T02:20:46.044Z,99408.92
2022-11-23T02:25:56.447Z,99410.11
2022-11-23T02:30:59.770Z,99409.58
2022-11-23T02:36:02.852Z,99404.15
2022-11-23T02:41:05.541Z,99397.19
2022-11-23T02:46:08.458Z,99399.48
2022-11-23T02:51:10.981Z,99396.39
2022-11-23T02:56:13.482Z,99395.67
2022-11-23T03:01:16.059Z,99393.63
2022-11-23T03:06:18.567Z,99395.72
2022-11-23T03:11:21.015Z,99396.40
2022-11-23T03:16:23.572Z,99396.73
2022-11-23T03:21:26.334Z,99400.66
2022-11-23T03:26:28.913Z,99406.81
2022-11-23T03:31:31.528Z,99410.56
2022-11-23T03:36:34.049Z,99412.96
2022-11-23T03:41:36.689Z,99415.20
2022-11-23T03:46:39.262Z,99410.77
2022-11-23T03:51:41.838Z,99412.67
2022-11-23T03:56:44.375Z,99416.77
2022-11-23T04:01:46.854Z,99422.93
2022-11-23T04:06:49.328Z,99424.17
2022-11-23T04:11:52.280Z,99417.04
2022-11-23T04:16:54.784Z,99413.99
2022-11-23T04:21:58.434Z,99404.94
2022-11-23T04:27:00.981Z,99398.79
2022-11-23T04:32:03.523Z,99405.98
2022-11-23T04:37:13.110Z,99403.23
2022-11-23T04:42:16.106Z,99397.57
2022-11-23T04:47:18.676Z,99390.23
2022-11-23T04:53:08.612Z,99375.23
2022-11-23T04:58:11.112Z,99369.57
2022-11-23T05:03:13.668Z,99368.42
2022-11-23T05:08:16.216Z,99367.75
2022-11-23T05:13:18.745Z,99365.06
2022-11-23T05:18:21.444Z,99367.48
2022-11-23T05:23:24.413Z,99376.91
2022-11-23T05:28:42.395Z,99381.34
2022-11-23T05:33:47.439Z,99384.59
2022-11-23T05:38:49.916Z,99382.70
2022-11-23T05:43:52.446Z,99385.63
2022-11-23T05:48:55.010Z,99388.04
2022-11-23T05:53:58.293Z,99381.55
2022-11-23T05:59:00.802Z,99374.92
2022-11-23T06:04:04.248Z,99380.44
2022-11-23T06:09:07.558Z,99387.27
2022-11-23T06:14:14.256Z,99386.75
2022-11-23T06:19:17.128Z,99390.52
2022-11-23T06:24:19.631Z,99394.98
2022-11-23T06:29:22.570Z,99394.99
2022-11-23T06:34:25.102Z,99397.36
2022-11-23T06:39:27.719Z,99404.20
2022-11-23T06:44:30.286Z,99405.58
2022-11-23T06:49:33.153Z,99413.80
2022-11-23T06:54:35.753Z,99412.77
2022-11-23T06:59:44.662Z,99408.66
2022-11-23T07:04:47.833Z,99413.77
2022-11-23T07:09:50.327Z,99413.77
2022-11-23T07:14:52.894Z,99419.41
2022-11-23T07:19:55.376Z,99425.89
2022-11-23T07:24:57.864Z,99427.77
2022-11-23T07:30:00.357Z,99427.92
2022-11-23T07:35:03.023Z,99426.70
2022-11-23T07:40:07.016Z,99428.08
2022-11-23T07:45:10.341Z,99431.81
2022-11-23T07:50:13.755Z,99445.30
2022-11-23T07:55:16.281Z,99448.69
2022-11-23T08:00:20.182Z,99454.68
2022-11-23T08:05:26.253Z,99453.33
2022-11-23T08:10:30.883Z,99452.30
2022-11-23T08:15:33.598Z,99460.34
2022-11-23T08:20:36.111Z,99465.69
2022-11-23T08:25:38.668Z,99472.50
2022-11-23T08:30:41.218Z,99469.20
2022-11-23T08:35:43.763Z,99476.39
2022-11-23T08:40:46.931Z,99484.59
2022-11-23T08:45:49.484Z,99488.83
2022-11-23T08:50:52.473Z,99489.98
2022-11-23T08:55:55.541Z,99483.96
2022-11-23T09:00:58.178Z,99473.17
2022-11-23T09:06:01.269Z,99471.62
2022-11-23T09:11:07.981Z,99472.62
2022-11-23T09:16:10.551Z,99471.34
2022-11-23T09:21:13.100Z,99471.06
2022-11-23T09:26:15.642Z,99467.73
2022-11-23T09:31:18.185Z,99474.16
2022-11-23T09:36:22.788Z,99464.11
2022-11-23T09:41:29.252Z,99462.46
2022-11-23T09:46:48.192Z,99462.72
2022-11-23T09:51:55.566Z,99457.77
2022-11-23T09:57:02.130Z,99458.09
2022-11-23T10:02:05.297Z,99453.29
2022-11-23T10:07:23.430Z,99447.45
2022-11-23T10:12:40.169Z,99441.73
2022-11-23T10:17:50.814Z,99444.73
2022-11-23T10:22:56.250Z,99450.81
2022-11-23T10:28:02.446Z,99456.84
2022-11-23T10:33:25.121Z,99459.33
2022-11-23T10:38:28.672Z,99459.67
2022-11-23T10:43:40.642Z,99458.95
2022-11-23T10:48:44.819Z,99457.09
2022-11-23T10:53:53.358Z,99448.51
2022-11-23T10:58:56.457Z,99454.17
2022-11-23T11:04:04.185Z,99444.17
2022-11-23T11:09:19.845Z,99440.40
2022-11-23T11:14:23.459Z,99438.90
2022-11-23T11:19:29.912Z,99432.30
2022-11-23T11:24:38.076Z,99429.98
2022-11-23T11:29:43.500Z,99423.16
2022-11-23T11:34:57.897Z,99429.38
2022-11-23T11:40:06.725Z,99421.23
2022-11-23T11:45:19.287Z,99422.46
2022-11-23T11:50:31.191Z,99410.29
2022-11-23T11:55:50.151Z,99408.23
2022-11-23T12:01:04.877Z,99408.45
2022-11-23T12:06:47.945Z,99401.98
2022-11-23T12:11:50.446Z,99405.08
2022-11-23T12:17:25.311Z,99411.23
2022-11-23T12:22:29.646Z,99415.16
2022-11-23T12:27:35.499Z,99414.69
2022-11-23T12:32:49.894Z,99413.52
2022-11-23T12:38:04.353Z,99406.33
2022-11-23T12:43:14.820Z,99397.63
2022-11-23T12:48:23.441Z,99391.95
2022-11-23T12:53:33.459Z,99398.08
2022-11-23T12:58:38.697Z,99404.59
2022-11-23T13:04:06.907Z,99395.89
2022-11-23T13:09:16.602Z,99390.14
2022-11-23T13:14:28.378Z,99379.80
2022-11-23T13:19:50.420Z,99376.30
2022-11-23T13:24:59.174Z,99377.35
2022-11-23T13:30:11.138Z,99373.95
2022-11-23T13:35:13.596Z,99372.23
2022-11-23T13:40:30.600Z,99386.45
2022-11-23T13:45:36.301Z,99398.96
2022-11-23T13:50:54.697Z,99409.30
2022-11-23T13:56:15.195Z,99416.52
2022-11-23T14:01:23.661Z,99420.83
2022-11-23T14:06:38.184Z,99422.77
2022-11-23T14:11:54.127Z,99428.08
2022-11-23T14:17:09.255Z,99441.09
2022-11-23T14:22:12.067Z,99451.40
2022-11-23T14:27:50.444Z,99460.53
2022-11-23T14:33:04.470Z,99458.83
2022-11-23T14:38:33.614Z,99458.64
2022-11-23T14:43:40.435Z,99460.70
2022-11-23T14:48:43.095Z,99460.69
2022-11-23T14:53:50.018Z,99459.51
2022-11-23T14:59:02.968Z,99457.45
2022-11-23T15:04:10.316Z,99453.66
2022-11-23T15:09:15.832Z,99455.04
2022-11-23T15:14:25.861Z,99455.75
2022-11-23T15:19:31.049Z,99453.21
2022-11-23T15:24:33.725Z,99452.75
2022-11-23T15:29:38.572Z,99455.67
2022-11-23T15:34:41.884Z,99458.91
2022-11-23T15:39:45.398Z,99459.77
2022-11-23T15:44:50.887Z,99460.65
2022-11-23T15:50:13.915Z,99462.20
2022-11-23T15:55:16.694Z,99465.80
2022-11-23T16:00:25.119Z,99468.00
2022-11-23T16:05:27.871Z,99466.63
2022-11-23T16:10:33.508Z,99466.65
2022-11-23T16:15:38.404Z,99460.48
2022-11-23T16:20:45.411Z,99454.33
2022-11-23T16:25:50.771Z,99445.77
2022-11-23T16:30:53.433Z,99445.94
2022-11-23T16:35:56.412Z,99444.07
2022-11-23T16:40:58.895Z,99450.05
2022-11-23T16:46:02.018Z,99452.45
2022-11-23T16:51:05.698Z,99458.78
2022-11-23T16:56:14.893Z,99463.41
2022-11-23T17:01:21.738Z,99463.92
2022-11-23T17:06:24.672Z,99474.88
2022-11-23T17:11:27.852Z,99471.09
2022-11-23T17:16:31.017Z,99472.30
2022-11-23T17:21:33.596Z,99466.84
2022-11-23T17:26:40.188Z,99469.08
2022-11-23T17:31:43.544Z,99472.84
2022-11-23T17:36:49.524Z,99465.48
2022-11-23T17:41:52.514Z,99473.53
2022-11-23T17:46:59.652Z,99472.67
2022-11-23T17:52:02.232Z,99474.58
2022-11-23T17:57:04.937Z,99474.74
2022-11-23T18:02:08.688Z,99474.72
2022-11-23T18:07:13.814Z,99474.90
2022-11-23T18:12:17.241Z,99480.91
2022-11-23T18:17:22.232Z,99477.84
2022-11-23T18:22:24.979Z,99476.65
2022-11-23T18:27:29.313Z,99483.52
2022-11-23T18:32:31.837Z,99484.18
2022-11-23T18:37:34.368Z,99487.95
2022-11-23T18:42:36.882Z,99487.77
2022-11-23T18:47:39.394Z,99495.65
2022-11-23T18:52:41.958Z,99495.13
2022-11-23T18:57:44.466Z,99490.30
2022-11-23T19:02:52.023Z,99491.02
2022-11-23T19:07:57.403Z,99493.60
2022-11-23T19:13:05.213Z,99494.11
2022-11-23T19:18:08.213Z,99490.88
2022-11-23T19:23:10.797Z,99496.18
2022-11-23T19:28:13.277Z,99500.63
2022-11-23T19:33:15.759Z,99503.54
2022-11-23T19:38:18.248Z,99504.90
2022-11-23T19:43:20.816Z,99501.99
2022-11-23T19:48:23.784Z,99499.78
2022-11-23T19:53:30.892Z,99495.17
2022-11-23T19:58:34.923Z,99495.35
2022-11-23T20:03:39.641Z,99499.30
2022-11-23T20:08:42.551Z,99491.45
2022-11-23T20:13:47.877Z,99494.70
2022-11-23T20:18:58.566Z,99493.35
2022-11-23T20:24:05.543Z,99496.25
2022-11-23T20:29:09.237Z,99499.16
2022-11-23T20:34:15.519Z,99498.13
2022-11-23T20:39:19.529Z,99504.98
2022-11-23T20:44:23.427Z,99513.20
2022-11-23T20:49:25.953Z,99511.66
2022-11-23T20:54:28.895Z,99513.02
2022-11-23T20:59:32.808Z,99513.70
2022-11-23T21:04:35.983Z,99511.98
2022-11-23T21:09:38.749Z,99515.06
2022-11-23T21:14:41.326Z,99505.14
2022-11-23T21:19:43.804Z,99502.92
2022-11-23T21:24:46.363Z,99506.35
2022-11-23T21:29:51.246Z,99511.46
2022-11-23T21:34:53.746Z,99514.38
2022-11-23T21:39:56.258Z,99510.97
2022-11-23T21:44:58.795Z,99516.10
2022-11-23T21:50:01.415Z,99511.83
2022-11-23T21:55:04.218Z,99519.19
2022-11-23T22:00:07.473Z,99521.58
2022-11-23T22:05:10.027Z,99522.43
2022-11-23T22:10:12.666Z,99526.37
2022-11-23T22:15:16.232Z,99520.89
2022-11-23T22:20:18.785Z,99512.16
2022-11-23T22:25:21.304Z,99517.81
2022-11-23T22:30:24.159Z,99522.78
2022-11-23T22:35:26.712Z,99523.80
2022-11-23T22:40:32.651Z,99529.96
2022-11-23T22:45:35.303Z,99534.39
2022-11-23T22:50:37.946Z,99542.27
2022-11-23T22:55:40.467Z,99541.74
2022-11-23T23:00:43.089Z,99545.34
2022-11-23T23:05:51.543Z,99550.48
2022-11-23T23:10:54.869Z,99551.50
2022-11-23T23:16:09.792Z,99543.44
2022-11-23T23:21:15.628Z,99538.48
2022-11-23T23:26:20.565Z,99533.35
2022-11-23T23:31:23.772Z,99537.45
2022-11-23T23:36:26.355Z,99543.27
2022-11-23T23:41:28.936Z,99538.98
2022-11-23T23:46:31.504Z,99539.68
2022-11-23T23:51:34.090Z,99540.20
2022-11-23T23:56:36.643Z,99541.05
